Terminal Aerodrome Forecast
Issued by NWS

Home | Current Version | Previous Version | Text Only | Print | Product List | Glossary On
Versions: 1 2 3 4 5 6 7 8 9 10 11 12 13 14 15 16
000
FTUS45 KLKN 310525
TAFELY
TAF
KELY 310525Z 3106/0106 19015KT P6SM BKN150
     FM311800 17025G39KT P6SM FEW120 BKN200
     FM010300 18015G25KT P6SM SCT150=

USA.gov is the U.S. government's official web portal to all federal, state and local government web resources and services.